Página principal
METAR-TAF:

METAR-TAF

Aeroportos :

Malé, Maldivas

Aeroporto Internacional Ibrahim Nasir

latitude: 04-12N, longitude: 073-32E, altura: 2 m

Observação actual do tempo

O boletim foi feito há 47 minutos, às 23:00 UTC
Vento 9 kt de es-nordeste
Temperatura 28°C
Humidade 79%
Pressão 1008 hPa
Visibilidade 10 km ou mais
Poucas nuvensa uma altura de 1800 ft

METAR: VRMM 182300Z 07009KT 9999 FEW018 28/24 Q1008 NOSIG

Hora: 04:47 (23:47 UTC)

Previsão

O boletim foi feito há 47 minutos, às 23:00 UTC
Previsão válida de 19 às 00 UTC a 20 às 06 UTC
Vento 9 kt de es-nordeste
Visibilidade 10 km ou mais
Poucas nuvensa uma altura de 1800 ft

TAF: VRMM 182300Z 1900/2006 07009KT 9999 FEW018

Observações e previsões do tempo de mais de 4000 aeroportos (mensagens METAR e TAF).

As estações disponíveis são os pontos amarelos e vermelhos sobre o mapa.

Mova o rato sobre o mapa para ver o nome da estação.

Depois clique no ponto para visualizar as observações e previsões meteorológicas.

Para alterar o mapa : clique nos botões verdes com uma cruz preta para aumentar o zoom; no botão verde com uma pitada de zoom; ou nas setas verdes para mapas adjacentes.


METAR-TAF: